CheckWX is a tool to help pilots better visualize weather data.  It is not intended as a substitute for an official pre-flight weather briefing.

20:18:04 UTC

KHQU METAR
Thomson-McDuffie County Airport
Thomson, Georgia, USA
Current

48 mins ago

KHQU 231930Z AUTO 29008KT 260V350 10SM CLR 30/11 A3009 RMK AO2 T02960106
Observed
Apr-23 @ 19:30 UTC
Wind
  • 290° at 8 KTS
Visibility
10 SM
Flight Rules
VFR
Cloud Levels
  • Clear skies
Temperature
30°C / 86°F
Dewpoint
11°C / 52°F
Humidity
31%
Altimeter
30.09" Hg
Pressure
1018.92 hPa
Previous

1 hour ago

KHQU 231910Z AUTO 33008KT 10SM CLR 30/10 A3011 RMK AO2 T02990100
Observed
Apr-23 @ 19:10 UTC
Wind
  • 330° at 8 KTS
Visibility
10 SM
Flight Rules
VFR
Cloud Levels
  • Clear skies
Temperature
30°C / 86°F
Dewpoint
10°C / 50°F
Humidity
29%
Altimeter
30.11" Hg
Pressure
1019.62 hPa
Previous

1 hour ago

KHQU 231850Z AUTO 27008KT 220V280 10SM CLR 30/11 A3011 RMK AO2 T02970110
Observed
Apr-23 @ 18:50 UTC
Wind
  • 270° at 8 KTS
Visibility
10 SM
Flight Rules
VFR
Cloud Levels
  • Clear skies
Temperature
30°C / 86°F
Dewpoint
11°C / 52°F
Humidity
31%
Altimeter
30.11" Hg
Pressure
1019.62 hPa